createdAt,value
2022-11-21T00:02:16.822Z,62.25
2022-11-21T00:05:19.670Z,58.00
2022-11-21T00:08:22.857Z,61.75
2022-11-21T00:11:25.461Z,64.00
2022-11-21T00:14:28.592Z,62.50
2022-11-21T00:17:31.309Z,62.75
2022-11-21T00:20:37.341Z,38.00
2022-11-21T00:23:39.974Z,53.75
2022-11-21T00:26:42.903Z,63.50
2022-11-21T00:29:45.384Z,63.00
2022-11-21T00:32:48.123Z,62.75
2022-11-21T00:35:50.793Z,63.00
2022-11-21T00:38:53.723Z,66.25
2022-11-21T00:41:56.326Z,62.00
2022-11-21T00:44:58.998Z,62.00
2022-11-21T00:48:03.409Z,62.25
2022-11-21T00:51:08.255Z,60.00
2022-11-21T00:54:10.927Z,64.00
2022-11-21T00:57:13.842Z,62.50
2022-11-21T01:00:18.838Z,60.00
2022-11-21T01:03:21.842Z,62.00
2022-11-21T01:06:24.435Z,65.00
2022-11-21T01:09:28.864Z,64.00
2022-11-21T01:12:31.765Z,66.00
2022-11-21T01:15:35.076Z,60.25
2022-11-21T01:18:38.582Z,59.25
2022-11-21T01:21:41.542Z,67.50
2022-11-21T01:24:44.027Z,63.25
2022-11-21T01:27:46.808Z,64.00
2022-11-21T01:30:49.328Z,62.75
2022-11-21T01:33:52.762Z,60.75
2022-11-21T01:36:55.324Z,60.75
2022-11-21T01:39:58.053Z,66.75
2022-11-21T01:43:12.079Z,63.75
2022-11-21T01:46:17.319Z,65.00
2022-11-21T01:49:29.873Z,57.25
2022-11-21T01:52:33.254Z,63.25
2022-11-21T01:55:36.563Z,64.50
2022-11-21T01:58:41.728Z,61.50
2022-11-21T02:01:45.229Z,66.25
2022-11-21T02:04:49.223Z,64.25
2022-11-21T02:07:52.950Z,68.75
2022-11-21T02:11:10.878Z,66.25
2022-11-21T02:14:13.627Z,56.75
2022-11-21T02:17:18.772Z,60.50
2022-11-21T02:20:28.951Z,57.25
2022-11-21T02:23:42.372Z,57.25
2022-11-21T02:26:47.978Z,55.75
2022-11-21T02:29:50.816Z,65.00
2022-11-21T02:32:53.631Z,67.50
2022-11-21T02:36:00.939Z,62.50
2022-11-21T02:39:05.338Z,64.50
2022-11-21T02:42:37.518Z,66.00
2022-11-21T02:45:42.679Z,63.75
2022-11-21T02:48:45.581Z,68.00
2022-11-21T02:51:48.697Z,57.75
2022-11-21T02:54:51.602Z,66.00
2022-11-21T02:57:54.659Z,63.75
2022-11-21T03:00:57.430Z,63.00
2022-11-21T03:03:59.818Z,67.50
2022-11-21T03:07:02.714Z,62.00
2022-11-21T03:10:05.999Z,63.00
2022-11-21T03:13:08.765Z,59.75
2022-11-21T03:16:11.388Z,63.75
2022-11-21T03:19:14.502Z,62.75
2022-11-21T03:22:17.039Z,60.75
2022-11-21T03:25:20.742Z,60.75
2022-11-21T03:28:23.460Z,58.00
2022-11-21T03:31:26.402Z,59.75
2022-11-21T03:34:29.219Z,60.75
2022-11-21T03:37:33.267Z,65.50
2022-11-21T03:40:35.798Z,58.50
2022-11-21T03:43:39.903Z,66.50
2022-11-21T03:46:44.933Z,59.50
2022-11-21T03:49:48.030Z,60.25
2022-11-21T03:52:50.627Z,66.00
2022-11-21T03:55:53.777Z,64.00
2022-11-21T03:58:56.629Z,65.00
2022-11-21T04:01:59.429Z,60.50
2022-11-21T04:05:01.887Z,66.25
2022-11-21T04:08:04.969Z,66.00
2022-11-21T04:11:08.201Z,61.25
2022-11-21T04:14:11.071Z,59.50
2022-11-21T04:17:13.594Z,60.50
2022-11-21T04:20:16.695Z,62.00
2022-11-21T04:23:19.059Z,60.50
2022-11-21T04:26:22.030Z,62.00
2022-11-21T04:29:24.622Z,62.50
2022-11-21T04:32:27.512Z,61.00
2022-11-21T04:35:29.990Z,55.50
2022-11-21T04:38:32.829Z,59.50
2022-11-21T04:41:35.318Z,57.00
2022-11-21T04:44:39.289Z,62.50
2022-11-21T04:47:44.193Z,64.00
2022-11-21T04:50:47.322Z,57.50
2022-11-21T04:53:49.939Z,57.50
2022-11-21T04:56:53.053Z,61.00
2022-11-21T04:59:56.258Z,59.75
2022-11-21T05:03:04.372Z,60.75
2022-11-21T05:06:06.809Z,62.00
2022-11-21T05:09:09.650Z,61.50
2022-11-21T05:12:31.081Z,61.00
2022-11-21T05:15:33.838Z,56.25
2022-11-21T05:18:36.519Z,60.00
2022-11-21T05:21:39.343Z,60.25
2022-11-21T05:24:41.947Z,62.00
2022-11-21T05:27:44.812Z,61.75
2022-11-21T05:30:47.242Z,62.00
2022-11-21T05:33:50.039Z,58.00
2022-11-21T05:36:57.412Z,61.50
2022-11-21T05:40:00.096Z,60.00
2022-11-21T05:43:20.922Z,63.00
2022-11-21T05:46:25.900Z,54.50
2022-11-21T05:49:28.365Z,57.25
2022-11-21T05:52:31.353Z,59.00
2022-11-21T05:55:36.901Z,65.50
2022-11-21T05:58:40.303Z,57.25
2022-11-21T06:02:01.340Z,64.25
2022-11-21T06:05:04.730Z,63.75
2022-11-21T06:08:07.309Z,62.50
2022-11-21T06:11:15.207Z,58.00
2022-11-21T06:14:17.951Z,65.50
2022-11-21T06:17:21.769Z,64.00
2022-11-21T06:20:24.297Z,64.00
2022-11-21T06:23:27.078Z,61.50
2022-11-21T06:26:29.707Z,64.75
2022-11-21T06:29:32.375Z,60.50
2022-11-21T06:32:38.503Z,65.25
2022-11-21T06:35:41.609Z,65.00
2022-11-21T06:38:45.565Z,62.50
2022-11-21T06:41:51.420Z,63.50
2022-11-21T06:44:54.204Z,61.50
2022-11-21T06:47:57.190Z,58.00
2022-11-21T06:51:05.384Z,58.75
2022-11-21T06:54:10.577Z,48.75
2022-11-21T06:57:15.199Z,62.25
2022-11-21T07:00:18.445Z,63.25
2022-11-21T07:03:21.451Z,65.50
2022-11-21T07:06:24.490Z,68.50
2022-11-21T07:09:33.293Z,65.00
2022-11-21T07:12:55.200Z,63.75
2022-11-21T07:16:02.649Z,67.00
2022-11-21T07:19:05.819Z,63.50
2022-11-21T07:22:08.987Z,67.00
2022-11-21T07:25:12.010Z,65.50
2022-11-21T07:28:14.568Z,66.75
2022-11-21T07:31:17.594Z,66.25
2022-11-21T07:34:20.043Z,59.75
2022-11-21T07:37:22.873Z,69.00
2022-11-21T07:40:26.137Z,67.50
2022-11-21T07:43:28.940Z,66.00
2022-11-21T07:46:31.452Z,71.00
2022-11-21T07:49:34.257Z,72.75
2022-11-21T07:52:37.516Z,72.00
2022-11-21T07:55:41.068Z,71.00
2022-11-21T07:58:43.865Z,70.50
2022-11-21T08:01:47.022Z,76.00
2022-11-21T08:04:49.962Z,75.50
2022-11-21T08:07:53.064Z,79.25
2022-11-21T08:10:55.771Z,72.00
2022-11-21T08:13:59.852Z,74.00
2022-11-21T08:17:03.084Z,75.75
2022-11-21T08:20:07.852Z,73.50
2022-11-21T08:23:11.054Z,78.25
2022-11-21T08:26:14.059Z,75.00
2022-11-21T08:29:16.991Z,75.00
2022-11-21T08:32:19.842Z,73.00
2022-11-21T08:35:22.446Z,75.00
2022-11-21T08:38:25.264Z,79.50
2022-11-21T08:41:46.587Z,80.25
2022-11-21T08:44:49.783Z,78.50
2022-11-21T08:47:53.366Z,82.50
2022-11-21T08:50:57.810Z,76.50
2022-11-21T08:54:00.427Z,83.25
2022-11-21T08:57:05.314Z,81.25
2022-11-21T09:00:10.326Z,78.00
2022-11-21T09:03:15.775Z,83.25
2022-11-21T09:06:20.555Z,80.50
2022-11-21T09:09:25.593Z,82.25
2022-11-21T09:12:28.344Z,77.00
2022-11-21T09:15:49.651Z,75.00
2022-11-21T09:18:52.859Z,80.75
2022-11-21T09:21:55.642Z,78.00
2022-11-21T09:24:58.196Z,72.50
2022-11-21T09:28:03.094Z,80.50
2022-11-21T09:31:06.951Z,78.00
2022-11-21T09:34:10.122Z,75.50
2022-11-21T09:37:12.782Z,69.50
2022-11-21T09:40:16.770Z,82.25
2022-11-21T09:44:02.311Z,76.75
2022-11-21T09:47:32.489Z,70.50
2022-11-21T09:50:34.799Z,76.00
2022-11-21T09:53:40.575Z,73.00
2022-11-21T09:56:43.708Z,75.75
2022-11-21T09:59:47.129Z,75.75
2022-11-21T10:02:51.134Z,67.75
2022-11-21T10:06:11.688Z,75.25
2022-11-21T10:09:33.726Z,74.50
2022-11-21T10:13:04.865Z,76.75
2022-11-21T10:16:22.539Z,72.00
2022-11-21T10:19:46.831Z,75.00
2022-11-21T10:23:20.008Z,74.50
2022-11-21T10:26:23.551Z,74.25
2022-11-21T10:29:36.729Z,72.00
2022-11-21T10:32:47.757Z,73.75
2022-11-21T10:35:56.140Z,72.50
2022-11-21T10:39:03.078Z,71.00
2022-11-21T10:42:28.044Z,72.75
2022-11-21T10:45:31.360Z,70.25
2022-11-21T10:48:33.823Z,72.25
2022-11-21T10:51:51.992Z,67.75
2022-11-21T10:55:03.472Z,66.75
2022-11-21T10:58:18.512Z,67.25
2022-11-21T11:01:31.707Z,66.75
2022-11-21T11:04:43.760Z,67.00
2022-11-21T11:08:04.719Z,67.50
2022-11-21T11:11:08.585Z,60.75
2022-11-21T11:14:13.917Z,63.00
2022-11-21T11:17:17.264Z,63.50
2022-11-21T11:20:32.220Z,57.50
2022-11-21T11:23:35.069Z,62.25
2022-11-21T11:26:48.675Z,64.25
2022-11-21T11:29:53.256Z,64.25
2022-11-21T11:32:56.093Z,63.25
2022-11-21T11:36:12.025Z,57.00
2022-11-21T11:39:26.674Z,62.25
2022-11-21T11:43:01.248Z,64.50
2022-11-21T11:50:52.070Z,61.00
2022-11-21T12:00:06.859Z,59.75
2022-11-21T12:04:05.258Z,59.25
2022-11-21T12:23:20.472Z,57.50
2022-11-21T12:32:04.700Z,54.75
2022-11-21T12:35:19.551Z,60.25
2022-11-21T12:38:22.819Z,61.75
2022-11-21T12:41:55.609Z,60.25
2022-11-21T12:45:29.428Z,63.00
2022-11-21T12:49:30.334Z,57.75
2022-11-21T13:01:55.150Z,65.00
2022-11-21T13:04:58.905Z,61.25
2022-11-21T13:08:27.796Z,64.50
2022-11-21T13:12:01.643Z,59.75
2022-11-21T13:15:38.481Z,63.75
2022-11-21T13:55:22.139Z,61.00
2022-11-21T13:56:55.251Z,59.25
2022-11-21T14:00:20.625Z,43.75
2022-11-21T14:04:08.016Z,57.00
2022-11-21T14:18:02.269Z,61.50
2022-11-21T14:47:26.693Z,62.00
2022-11-21T14:50:36.858Z,60.00
2022-11-21T14:53:42.198Z,63.50
2022-11-21T14:56:48.850Z,65.50
2022-11-21T14:59:52.690Z,62.50
2022-11-21T15:02:58.433Z,59.25
2022-11-21T15:06:11.272Z,64.00
2022-11-21T15:10:26.206Z,64.75
2022-11-21T15:12:47.987Z,66.25
2022-11-21T15:15:53.315Z,60.50
2022-11-21T15:23:56.023Z,64.00
2022-11-21T15:27:00.308Z,64.00
2022-11-21T15:30:27.192Z,61.25
2022-11-21T15:34:34.338Z,55.00
2022-11-21T15:38:28.228Z,63.00
2022-11-21T15:41:32.128Z,62.00
2022-11-21T15:44:34.575Z,68.50
2022-11-21T15:47:37.261Z,66.25
2022-11-21T15:50:39.995Z,62.25
2022-11-21T15:53:43.070Z,66.00
2022-11-21T15:56:47.302Z,63.00
2022-11-21T15:59:50.233Z,66.00
2022-11-21T16:07:58.165Z,68.00
2022-11-21T16:17:32.547Z,66.25
2022-11-21T16:20:40.849Z,65.50
2022-11-21T16:23:55.976Z,66.25
2022-11-21T16:27:03.943Z,63.50
2022-11-21T16:30:32.798Z,67.00
2022-11-21T16:48:47.431Z,60.75
2022-11-21T17:02:28.972Z,68.00
2022-11-21T17:14:58.955Z,65.50
2022-11-21T17:22:02.561Z,62.50
2022-11-21T17:23:13.754Z,66.75
2022-11-21T17:32:28.665Z,66.00
2022-11-21T17:41:32.025Z,65.50
2022-11-21T17:45:00.791Z,64.50
2022-11-21T17:48:04.502Z,64.00
2022-11-21T17:51:11.938Z,67.00
2022-11-21T17:54:16.376Z,66.00
2022-11-21T17:57:22.042Z,65.75
2022-11-21T18:11:04.105Z,66.00
2022-11-21T18:19:52.587Z,67.50
2022-11-21T18:22:56.043Z,63.25
2022-11-21T18:26:12.688Z,60.75
2022-11-21T18:32:40.003Z,63.00
2022-11-21T18:35:44.679Z,61.00
2022-11-21T18:38:51.392Z,63.25
2022-11-21T18:41:59.378Z,65.00
2022-11-21T18:45:03.345Z,63.25
2022-11-21T18:48:24.540Z,66.00
2022-11-21T18:51:31.742Z,66.00
2022-11-21T18:54:57.069Z,63.50
2022-11-21T18:58:00.571Z,67.50
2022-11-21T19:01:09.697Z,64.75
2022-11-21T19:04:13.145Z,65.50
2022-11-21T19:07:17.921Z,59.00
2022-11-21T19:10:42.210Z,66.50
2022-11-21T19:13:45.750Z,63.25
2022-11-21T19:16:49.140Z,63.25
2022-11-21T19:19:53.194Z,66.00
2022-11-21T19:22:57.148Z,63.25
2022-11-21T19:26:02.755Z,63.75
2022-11-21T19:29:05.942Z,60.25
2022-11-21T19:32:34.337Z,63.75
2022-11-21T19:35:38.280Z,64.25
2022-11-21T19:38:50.372Z,64.75
2022-11-21T19:41:54.138Z,64.00
2022-11-21T19:45:03.292Z,64.50
2022-11-21T19:48:07.082Z,60.00
2022-11-21T19:55:54.526Z,64.75
2022-11-21T19:59:32.944Z,61.00
2022-11-21T20:02:41.420Z,69.00
2022-11-21T20:05:47.855Z,65.25
2022-11-21T20:09:33.317Z,64.00
2022-11-21T20:12:40.434Z,61.25
2022-11-21T20:21:10.840Z,63.50
2022-11-21T20:24:15.673Z,60.00
2022-11-21T20:27:40.758Z,65.25
2022-11-21T20:30:51.107Z,61.75
2022-11-21T20:34:14.672Z,63.75
2022-11-21T20:37:51.023Z,59.75
2022-11-21T20:40:57.473Z,54.00
2022-11-21T20:47:27.471Z,61.50
2022-11-21T20:51:46.461Z,60.50
2022-11-21T20:54:06.211Z,61.25
2022-11-21T21:13:48.960Z,61.00
